createdAt,value
2018-10-11T00:02:10.941Z,91.51
2018-10-11T00:04:40.080Z,91.65
2018-10-11T00:07:09.194Z,91.93
2018-10-11T00:09:38.284Z,92.13
2018-10-11T00:12:07.788Z,92.07
2018-10-11T00:14:37.056Z,91.58
2018-10-11T00:17:06.391Z,92.34
2018-10-11T00:19:35.580Z,92.11
2018-10-11T00:22:04.784Z,92.98
2018-10-11T00:24:33.993Z,93.13
2018-10-11T00:27:03.228Z,93.12
2018-10-11T00:29:32.349Z,92.98
2018-10-11T00:32:01.580Z,93.18
2018-10-11T00:34:30.777Z,93.00
2018-10-11T00:36:59.881Z,92.96
2018-10-11T00:39:29.181Z,92.63
2018-10-11T00:41:58.264Z,93.12
2018-10-11T00:44:27.081Z,93.64
2018-10-11T00:46:55.901Z,94.53
2018-10-11T00:49:24.728Z,93.75
2018-10-11T00:51:53.501Z,95.24
2018-10-11T00:54:22.308Z,95.19
2018-10-11T00:56:51.113Z,94.49
2018-10-11T00:59:19.889Z,94.48
2018-10-11T01:01:48.691Z,94.85
2018-10-11T01:04:17.476Z,94.97
2018-10-11T01:06:46.270Z,95.54
2018-10-11T01:09:15.117Z,95.40
2018-10-11T01:11:43.868Z,95.63
2018-10-11T01:14:12.657Z,95.68
2018-10-11T01:16:41.434Z,95.24
2018-10-11T01:19:10.433Z,96.16
2018-10-11T01:21:39.457Z,96.52
2018-10-11T01:24:08.653Z,96.49
2018-10-11T01:26:37.445Z,96.34
2018-10-11T01:29:06.297Z,96.05
2018-10-11T01:31:35.117Z,95.99
2018-10-11T01:34:03.966Z,97.05
2018-10-11T01:36:32.850Z,97.72
2018-10-11T01:39:01.696Z,97.22
2018-10-11T01:41:30.662Z,97.35
2018-10-11T01:43:59.586Z,97.75
2018-10-11T01:46:28.454Z,98.30
2018-10-11T01:48:57.453Z,98.00
2018-10-11T01:51:26.339Z,98.57
2018-10-11T01:53:55.201Z,98.63
2018-10-11T01:56:24.130Z,98.47
2018-10-11T01:58:52.968Z,98.81
2018-10-11T02:01:21.800Z,98.98
2018-10-11T02:03:50.656Z,99.35
2018-10-11T02:06:19.491Z,99.39
2018-10-11T02:08:48.359Z,99.48
2018-10-11T02:11:17.211Z,99.67
2018-10-11T02:13:46.072Z,100.00
2018-10-11T02:16:14.916Z,99.69
2018-10-11T02:18:43.766Z,99.37
2018-10-11T02:21:12.605Z,99.03
2018-10-11T02:23:41.447Z,98.60
2018-10-11T02:26:10.306Z,98.55
2018-10-11T02:28:39.144Z,98.82
2018-10-11T02:31:08.096Z,98.68
2018-10-11T02:33:36.991Z,98.76
2018-10-11T02:36:05.866Z,99.11
2018-10-11T02:38:34.691Z,99.02
2018-10-11T02:41:03.574Z,98.91
2018-10-11T02:43:32.411Z,98.28
2018-10-11T02:46:01.249Z,98.57
2018-10-11T02:48:30.124Z,98.99
2018-10-11T02:50:58.951Z,99.03
2018-10-11T02:53:27.842Z,99.22
2018-10-11T02:55:56.820Z,99.16
2018-10-11T02:58:36.697Z,99.22
2018-10-11T03:01:05.615Z,99.26
2018-10-11T03:03:34.600Z,99.55
2018-10-11T03:06:03.576Z,99.93
2018-10-11T03:08:32.680Z,100.00
2018-10-11T03:11:01.671Z,100.00
2018-10-11T03:13:30.538Z,100.00
2018-10-11T03:15:59.429Z,99.32
2018-10-11T03:18:28.375Z,99.42
2018-10-11T03:20:57.232Z,99.12
2018-10-11T03:23:26.071Z,99.32
2018-10-11T03:25:54.905Z,98.82
2018-10-11T03:28:23.739Z,98.97
2018-10-11T03:30:52.588Z,98.99
2018-10-11T03:33:21.434Z,98.87
2018-10-11T03:35:50.271Z,98.31
2018-10-11T03:38:19.115Z,98.25
2018-10-11T03:40:47.954Z,97.82
2018-10-11T03:43:16.815Z,98.42
2018-10-11T03:45:45.647Z,99.02
2018-10-11T03:48:14.510Z,98.65
2018-10-11T03:50:43.346Z,98.79
2018-10-11T03:53:12.174Z,99.29
2018-10-11T03:55:41.020Z,98.96
2018-10-11T03:58:09.851Z,99.17
2018-10-11T04:00:38.846Z,99.26
2018-10-11T04:03:07.721Z,99.81
2018-10-11T04:05:36.613Z,98.89
2018-10-11T04:08:05.542Z,99.52
2018-10-11T04:10:34.371Z,99.25
2018-10-11T04:13:03.243Z,99.59
2018-10-11T04:15:32.087Z,99.65
2018-10-11T04:18:00.935Z,99.46
2018-10-11T04:20:29.775Z,99.46
2018-10-11T04:22:58.633Z,99.00
2018-10-11T04:25:28.030Z,99.54
2018-10-11T04:27:57.098Z,99.66
2018-10-11T04:30:26.407Z,99.47
2018-10-11T04:32:55.707Z,98.93
2018-10-11T04:35:24.580Z,98.03
2018-10-11T04:37:53.419Z,98.70
2018-10-11T04:40:22.281Z,98.33
2018-10-11T04:42:51.155Z,98.74
2018-10-11T04:45:19.984Z,98.31
2018-10-11T04:47:48.903Z,98.21
2018-10-11T04:50:18.544Z,98.65
2018-10-11T04:52:47.429Z,98.38
2018-10-11T04:55:16.310Z,98.02
2018-10-11T04:57:45.164Z,98.40
2018-10-11T05:00:14.062Z,98.62
2018-10-11T05:02:42.904Z,98.94
2018-10-11T05:05:11.781Z,98.31
2018-10-11T05:07:40.628Z,98.46
2018-10-11T05:10:09.596Z,97.98
2018-10-11T05:12:38.511Z,97.64
2018-10-11T05:15:07.903Z,97.71
2018-10-11T05:17:36.879Z,98.31
2018-10-11T05:20:06.011Z,98.10
2018-10-11T05:22:34.939Z,98.20
2018-10-11T05:25:03.892Z,98.60
2018-10-11T05:27:32.759Z,97.88
2018-10-11T05:30:01.659Z,97.87
2018-10-11T05:32:30.922Z,97.82
2018-10-11T05:34:59.794Z,97.44
2018-10-11T05:37:28.911Z,96.80
2018-10-11T05:39:57.815Z,96.83
2018-10-11T05:42:26.904Z,97.16
2018-10-11T05:45:03.607Z,96.67
2018-10-11T05:47:32.510Z,95.76
2018-10-11T05:50:01.448Z,94.22
2018-10-11T05:52:30.436Z,93.36
2018-10-11T05:54:59.430Z,92.70
2018-10-11T05:57:28.439Z,93.00
2018-10-11T05:59:57.810Z,91.93
2018-10-11T06:02:27.156Z,92.24
2018-10-11T06:04:56.607Z,92.28
2018-10-11T06:07:25.881Z,92.08
2018-10-11T06:09:55.131Z,91.70
2018-10-11T06:12:24.374Z,91.98
2018-10-11T06:14:53.531Z,92.05
2018-10-11T06:17:22.751Z,91.84
2018-10-11T06:19:51.951Z,91.74
2018-10-11T06:22:21.151Z,91.76
2018-10-11T06:24:50.475Z,91.00
2018-10-11T06:27:19.748Z,92.02
2018-10-11T06:29:48.886Z,91.88
2018-10-11T06:32:18.147Z,90.78
2018-10-11T06:34:47.099Z,89.84
2018-10-11T06:37:16.060Z,89.15
2018-10-11T06:39:44.992Z,88.07
2018-10-11T06:42:13.941Z,87.20
2018-10-11T06:44:42.829Z,86.68
2018-10-11T06:47:12.026Z,87.36
2018-10-11T06:49:47.404Z,87.75
2018-10-11T06:52:16.582Z,86.43
2018-10-11T06:54:45.796Z,86.61
2018-10-11T06:57:14.663Z,86.46
2018-10-11T06:59:43.522Z,85.89
2018-10-11T07:02:12.383Z,85.15
2018-10-11T07:04:41.216Z,83.27
2018-10-11T07:07:10.099Z,82.79
2018-10-11T07:09:38.934Z,82.81
2018-10-11T07:12:07.781Z,81.08
2018-10-11T07:14:36.603Z,78.05
2018-10-11T07:17:05.471Z,75.53
2018-10-11T07:19:34.267Z,75.41
2018-10-11T07:22:03.159Z,74.30
2018-10-11T07:24:32.763Z,73.25
2018-10-11T07:27:02.039Z,72.23
2018-10-11T07:29:31.319Z,68.86
2018-10-11T07:32:00.562Z,66.39
2018-10-11T07:34:29.908Z,61.90
2018-10-11T07:36:58.725Z,62.35
2018-10-11T07:39:27.535Z,60.78
2018-10-11T07:41:56.361Z,58.61
2018-10-11T07:44:25.175Z,58.24
2018-10-11T07:46:54.026Z,56.05
2018-10-11T07:49:22.903Z,55.78
2018-10-11T07:51:51.775Z,55.77
2018-10-11T07:54:20.686Z,54.75
2018-10-11T07:56:49.539Z,55.76
2018-10-11T07:59:18.427Z,55.26
2018-10-11T08:01:47.303Z,55.48
2018-10-11T08:04:16.093Z,54.36
2018-10-11T08:06:44.947Z,55.90
2018-10-11T08:09:13.755Z,56.39
2018-10-11T08:11:43.075Z,52.84
2018-10-11T08:14:13.909Z,54.11
2018-10-11T08:16:43.354Z,54.20
2018-10-11T08:19:12.808Z,54.21
2018-10-11T08:21:41.823Z,55.36
2018-10-11T08:24:11.127Z,56.82
2018-10-11T08:26:40.358Z,56.95
2018-10-11T08:29:09.606Z,57.90
2018-10-11T08:31:38.841Z,59.28
2018-10-11T08:34:08.167Z,60.25
2018-10-11T08:36:37.411Z,61.18
2018-10-11T08:39:09.227Z,60.98
2018-10-11T08:41:38.730Z,60.32
2018-10-11T08:44:08.433Z,61.11
2018-10-11T08:46:37.690Z,59.66
2018-10-11T08:49:06.913Z,60.83
2018-10-11T08:51:35.853Z,60.42
2018-10-11T08:54:09.882Z,61.01
2018-10-11T08:56:38.759Z,60.00
2018-10-11T08:59:07.627Z,61.28
2018-10-11T09:01:36.464Z,60.32
2018-10-11T09:04:05.468Z,59.88
2018-10-11T09:06:34.239Z,59.29
2018-10-11T09:09:03.184Z,59.60
2018-10-11T09:11:32.089Z,59.79
2018-10-11T09:14:00.935Z,60.11
2018-10-11T09:16:29.767Z,59.77
2018-10-11T09:18:58.599Z,59.25
2018-10-11T09:21:27.422Z,56.45
2018-10-11T09:23:56.266Z,57.38
2018-10-11T09:26:25.115Z,55.11
2018-10-11T09:28:53.962Z,55.76
2018-10-11T09:31:22.794Z,53.93
2018-10-11T09:33:51.729Z,54.89
2018-10-11T09:36:20.588Z,53.59
2018-10-11T09:38:50.034Z,55.02
2018-10-11T09:41:19.066Z,54.54
2018-10-11T09:43:47.895Z,53.43
2018-10-11T09:46:17.275Z,55.09
2018-10-11T09:48:46.125Z,53.51
2018-10-11T09:51:14.996Z,50.79
2018-10-11T09:53:43.872Z,53.41
2018-10-11T09:56:12.695Z,52.68
2018-10-11T09:58:41.564Z,50.30
2018-10-11T10:01:15.618Z,49.76
2018-10-11T10:03:44.464Z,50.36
2018-10-11T10:06:13.287Z,49.81
2018-10-11T10:08:42.144Z,51.70
2018-10-11T10:11:10.982Z,49.73
2018-10-11T10:13:39.820Z,49.39
2018-10-11T10:16:08.658Z,49.65
2018-10-11T10:18:37.514Z,49.42
2018-10-11T10:21:06.413Z,50.64
2018-10-11T10:23:35.255Z,51.90
2018-10-11T10:26:04.090Z,50.84
2018-10-11T10:28:32.914Z,48.81
2018-10-11T10:31:01.777Z,48.89
2018-10-11T10:33:30.588Z,49.03
2018-10-11T10:35:59.410Z,48.47
2018-10-11T10:38:28.275Z,49.08
2018-10-11T10:40:57.100Z,49.95
2018-10-11T10:43:25.922Z,46.29
2018-10-11T10:45:54.751Z,48.77
2018-10-11T10:48:23.570Z,47.18
2018-10-11T10:50:52.395Z,46.36
2018-10-11T10:53:21.210Z,47.31
2018-10-11T10:55:50.045Z,48.10
2018-10-11T10:58:18.852Z,45.55
2018-10-11T11:00:47.712Z,47.83
2018-10-11T11:03:16.527Z,46.57
2018-10-11T11:05:45.388Z,46.23
2018-10-11T11:08:14.259Z,44.94
2018-10-11T11:10:43.079Z,44.08
2018-10-11T11:13:11.965Z,45.39
2018-10-11T11:15:40.754Z,44.98
2018-10-11T11:18:09.562Z,43.49
2018-10-11T11:20:38.382Z,43.22
2018-10-11T11:23:07.522Z,43.60
2018-10-11T11:25:36.355Z,45.16
2018-10-11T11:28:05.183Z,45.20
2018-10-11T11:30:34.070Z,43.93
2018-10-11T11:33:02.884Z,44.45
2018-10-11T11:35:31.745Z,44.16
2018-10-11T11:38:00.583Z,43.19
2018-10-11T11:40:29.416Z,43.09
2018-10-11T11:42:59.053Z,43.38
2018-10-11T11:45:27.872Z,42.83
2018-10-11T11:47:57.075Z,43.88
2018-10-11T11:50:26.429Z,43.26
2018-10-11T11:52:55.709Z,44.36
2018-10-11T11:55:24.949Z,44.36
2018-10-11T11:57:54.266Z,41.42
2018-10-11T12:00:26.625Z,44.21
2018-10-11T12:02:57.282Z,42.37
2018-10-11T12:05:26.543Z,43.98
2018-10-11T12:07:55.834Z,42.80
2018-10-11T12:10:25.075Z,44.62
2018-10-11T12:12:57.339Z,43.11
2018-10-11T12:15:27.587Z,42.77
2018-10-11T12:17:57.891Z,42.80
2018-10-11T12:20:28.142Z,42.07
2018-10-11T12:22:58.336Z,40.98
2018-10-11T12:25:27.838Z,40.61
2018-10-11T12:27:57.146Z,41.52
2018-10-11T12:30:26.539Z,42.48
2018-10-11T12:32:55.839Z,39.89
2018-10-11T12:35:25.563Z,40.93
2018-10-11T12:37:54.803Z,39.64
2018-10-11T12:40:24.511Z,39.68
2018-10-11T12:42:53.199Z,39.88
2018-10-11T12:45:22.534Z,39.58
2018-10-11T12:47:51.598Z,38.78
2018-10-11T12:50:20.803Z,37.98
2018-10-11T12:52:50.087Z,37.36
2018-10-11T12:55:19.398Z,37.71
2018-10-11T12:57:48.826Z,37.92
2018-10-11T13:00:18.520Z,39.87
2018-10-11T13:02:47.919Z,37.31
2018-10-11T13:05:17.011Z,38.95
2018-10-11T13:07:46.298Z,39.28
2018-10-11T13:10:15.503Z,39.23
2018-10-11T13:12:44.730Z,39.43
2018-10-11T13:15:14.295Z,38.71
2018-10-11T13:17:43.839Z,39.46
2018-10-11T13:20:12.666Z,39.45
2018-10-11T13:22:41.950Z,39.92
2018-10-11T13:25:11.203Z,38.50
2018-10-11T13:27:40.499Z,39.83
2018-10-11T13:30:09.802Z,40.48
2018-10-11T13:32:38.983Z,39.63
2018-10-11T13:35:08.606Z,41.76
2018-10-11T13:37:37.703Z,43.25
2018-10-11T13:40:06.955Z,44.50
2018-10-11T13:42:35.795Z,45.35
2018-10-11T13:45:04.751Z,42.06
2018-10-11T13:47:37.879Z,44.74
2018-10-11T13:50:02.566Z,44.25
2018-10-11T13:52:31.396Z,43.79
2018-10-11T13:55:00.223Z,41.96
2018-10-11T13:57:31.125Z,42.21
2018-10-11T13:59:57.916Z,44.09
2018-10-11T14:02:26.767Z,43.81
2018-10-11T14:04:55.582Z,44.16
2018-10-11T14:07:24.430Z,41.60
2018-10-11T14:09:53.230Z,41.58
2018-10-11T14:12:22.046Z,41.50
2018-10-11T14:14:50.926Z,40.66
2018-10-11T14:17:19.774Z,40.56
2018-10-11T14:19:48.583Z,42.06
2018-10-11T14:22:17.410Z,39.58
2018-10-11T14:24:46.237Z,40.28
2018-10-11T14:27:15.051Z,40.65
2018-10-11T14:29:43.867Z,41.82
2018-10-11T14:32:12.692Z,43.16
2018-10-11T14:34:41.510Z,43.74
2018-10-11T14:37:10.486Z,46.65
2018-10-11T14:39:39.234Z,47.13
2018-10-11T14:42:08.449Z,46.51
2018-10-11T14:44:37.231Z,45.57
2018-10-11T14:47:06.124Z,48.98
2018-10-11T14:49:35.021Z,45.01
2018-10-11T14:52:03.929Z,45.51
2018-10-11T14:54:35.128Z,46.22
2018-10-11T14:57:05.471Z,46.98
2018-10-11T14:59:34.303Z,48.77
2018-10-11T15:02:03.291Z,51.67
2018-10-11T15:04:32.546Z,51.30
2018-10-11T15:07:01.418Z,52.49
2018-10-11T15:09:30.259Z,51.89
2018-10-11T15:11:59.120Z,52.06
2018-10-11T15:14:27.995Z,53.29
2018-10-11T15:16:57.367Z,50.12
2018-10-11T15:19:26.183Z,52.24
2018-10-11T15:21:55.013Z,54.88
2018-10-11T15:24:23.838Z,55.41
2018-10-11T15:26:52.718Z,55.74
2018-10-11T15:29:21.587Z,54.85
2018-10-11T15:31:50.431Z,53.02
2018-10-11T15:34:19.355Z,49.82
2018-10-11T15:36:48.186Z,51.72
2018-10-11T15:39:17.020Z,54.11
2018-10-11T15:41:45.847Z,52.66
2018-10-11T15:44:14.697Z,53.23
2018-10-11T15:46:43.627Z,55.24
2018-10-11T15:49:12.463Z,54.87
2018-10-11T15:51:41.383Z,54.47
2018-10-11T15:54:10.242Z,56.15
2018-10-11T15:56:39.072Z,56.28
2018-10-11T15:59:07.992Z,56.68
2018-10-11T16:01:36.815Z,57.11
2018-10-11T16:04:05.666Z,59.46
2018-10-11T16:06:34.536Z,58.66
2018-10-11T16:09:03.597Z,59.78
2018-10-11T16:11:32.379Z,60.53
2018-10-11T16:14:01.578Z,61.27
2018-10-11T16:16:30.438Z,62.17
2018-10-11T16:18:59.271Z,62.61
2018-10-11T16:21:28.093Z,61.54
2018-10-11T16:23:56.965Z,61.92
2018-10-11T16:26:25.800Z,62.41
2018-10-11T16:28:54.636Z,63.47
2018-10-11T16:31:23.507Z,63.48
2018-10-11T16:33:52.359Z,64.74
2018-10-11T16:36:21.229Z,64.92
2018-10-11T16:38:50.089Z,64.03
2018-10-11T16:41:18.946Z,65.51
2018-10-11T16:43:47.803Z,67.14
2018-10-11T16:46:16.653Z,68.47
2018-10-11T16:48:46.047Z,68.14
2018-10-11T16:51:15.151Z,68.15
2018-10-11T16:53:44.353Z,67.43
2018-10-11T16:56:13.651Z,68.10
2018-10-11T16:58:42.974Z,69.19
2018-10-11T17:01:12.296Z,69.76
2018-10-11T17:03:41.595Z,69.98
2018-10-11T17:06:10.827Z,72.25
2018-10-11T17:08:40.095Z,70.07
2018-10-11T17:11:09.331Z,70.85
2018-10-11T17:13:38.527Z,70.53
2018-10-11T17:16:07.743Z,71.54
2018-10-11T17:18:37.072Z,71.44
2018-10-11T17:21:06.387Z,72.38
2018-10-11T17:23:35.887Z,73.18
2018-10-11T17:26:06.119Z,71.58
2018-10-11T17:28:35.355Z,71.77
2018-10-11T17:31:04.643Z,72.81
2018-10-11T17:33:34.091Z,73.72
2018-10-11T17:36:03.392Z,73.82
2018-10-11T17:38:32.663Z,74.27
2018-10-11T17:41:01.492Z,74.19
2018-10-11T17:43:30.366Z,75.70
2018-10-11T17:45:59.170Z,74.17
2018-10-11T17:48:28.025Z,74.57
2018-10-11T17:50:56.865Z,75.41
2018-10-11T17:53:27.856Z,74.87
2018-10-11T17:55:56.719Z,76.49
2018-10-11T17:58:25.552Z,76.88
2018-10-11T18:00:54.399Z,75.47
2018-10-11T18:03:23.276Z,75.65
2018-10-11T18:05:52.133Z,77.12
2018-10-11T18:08:20.972Z,76.56
2018-10-11T18:10:49.863Z,75.38
2018-10-11T18:13:18.693Z,76.41
2018-10-11T18:15:47.523Z,77.27
2018-10-11T18:18:16.347Z,76.96
2018-10-11T18:20:45.191Z,77.22
2018-10-11T18:23:14.026Z,75.07
2018-10-11T18:25:42.867Z,75.27
2018-10-11T18:28:11.731Z,76.33
2018-10-11T18:30:40.614Z,77.34
2018-10-11T18:33:09.503Z,76.82
2018-10-11T18:35:38.356Z,76.90
2018-10-11T18:38:07.192Z,75.19
2018-10-11T18:40:36.042Z,76.31
2018-10-11T18:43:04.878Z,75.95
2018-10-11T18:45:33.687Z,77.38
2018-10-11T18:48:02.591Z,77.64
2018-10-11T18:50:31.533Z,75.30
2018-10-11T18:53:00.467Z,74.41
2018-10-11T18:55:29.291Z,75.07
2018-10-11T18:57:58.128Z,75.26
2018-10-11T19:00:26.943Z,75.83
2018-10-11T19:02:55.799Z,76.16
2018-10-11T19:05:24.698Z,76.37
2018-10-11T19:07:53.578Z,77.28
2018-10-11T19:10:22.443Z,76.16
2018-10-11T19:12:51.263Z,76.58
2018-10-11T19:15:20.135Z,77.93
2018-10-11T19:17:48.998Z,77.50
2018-10-11T19:20:17.859Z,77.61
2018-10-11T19:22:46.694Z,76.58
2018-10-11T19:25:15.511Z,77.78
2018-10-11T19:27:44.356Z,77.76
2018-10-11T19:30:13.367Z,78.62
2018-10-11T19:32:42.194Z,77.87
2018-10-11T19:35:11.078Z,78.15
2018-10-11T19:37:39.947Z,79.36
2018-10-11T19:40:09.052Z,78.22
2018-10-11T19:42:38.319Z,79.74
2018-10-11T19:45:07.423Z,80.09
2018-10-11T19:47:36.718Z,79.86
2018-10-11T19:50:06.004Z,79.35
2018-10-11T19:52:35.343Z,79.75
2018-10-11T19:55:04.518Z,79.94
2018-10-11T19:57:33.810Z,80.03
2018-10-11T20:00:02.939Z,78.07
2018-10-11T20:02:32.079Z,78.62
2018-10-11T20:05:01.299Z,78.37
2018-10-11T20:07:30.605Z,75.20
2018-10-11T20:09:59.893Z,73.89
2018-10-11T20:12:29.107Z,75.25
2018-10-11T20:14:58.411Z,74.62
2018-10-11T20:17:27.700Z,73.95
2018-10-11T20:19:56.987Z,72.34
2018-10-11T20:22:26.195Z,71.20
2018-10-11T20:24:55.511Z,69.04
2018-10-11T20:27:24.838Z,70.72
2018-10-11T20:29:54.001Z,69.97
2018-10-11T20:32:23.278Z,70.13
2018-10-11T20:34:52.371Z,71.37
2018-10-11T20:37:21.572Z,71.07
2018-10-11T20:39:50.787Z,67.65
2018-10-11T20:42:20.076Z,67.40
2018-10-11T20:44:49.291Z,68.58
2018-10-11T20:47:18.575Z,67.79
2018-10-11T20:49:47.783Z,68.09
2018-10-11T20:52:16.971Z,67.67
2018-10-11T20:54:46.338Z,67.82
2018-10-11T20:57:15.644Z,66.97
2018-10-11T20:59:44.790Z,68.14
2018-10-11T21:02:14.054Z,69.12
2018-10-11T21:04:43.323Z,70.50
2018-10-11T21:07:12.508Z,71.12
2018-10-11T21:09:41.658Z,68.65
2018-10-11T21:12:10.860Z,69.40
2018-10-11T21:14:40.203Z,70.68
2018-10-11T21:17:09.639Z,70.07
2018-10-11T21:19:38.850Z,72.68
2018-10-11T21:22:08.225Z,70.20
2018-10-11T21:24:37.475Z,70.76
2018-10-11T21:27:06.687Z,70.23
2018-10-11T21:29:35.843Z,71.45
2018-10-11T21:32:04.970Z,72.61
2018-10-11T21:34:34.148Z,72.13
2018-10-11T21:37:03.366Z,73.14
2018-10-11T21:39:32.531Z,72.57
2018-10-11T21:42:01.642Z,72.54
2018-10-11T21:44:30.931Z,73.17
2018-10-11T21:47:00.145Z,74.43
2018-10-11T21:49:29.325Z,72.71
2018-10-11T21:51:58.555Z,73.75
2018-10-11T21:54:27.719Z,74.10
2018-10-11T21:56:57.038Z,74.52
2018-10-11T21:59:26.326Z,75.42
2018-10-11T22:01:55.519Z,75.62
2018-10-11T22:04:24.773Z,75.41
2018-10-11T22:06:54.076Z,75.70
2018-10-11T22:09:23.419Z,75.39
2018-10-11T22:11:52.664Z,75.96
2018-10-11T22:14:21.963Z,75.32
2018-10-11T22:16:51.243Z,75.95
2018-10-11T22:19:20.528Z,75.15
2018-10-11T22:21:49.726Z,73.57
2018-10-11T22:24:18.935Z,73.29
2018-10-11T22:26:48.214Z,73.57
2018-10-11T22:29:17.432Z,74.48
2018-10-11T22:31:46.702Z,74.28
2018-10-11T22:34:15.918Z,74.92
2018-10-11T22:36:45.244Z,75.33
2018-10-11T22:39:14.426Z,74.30
2018-10-11T22:41:43.717Z,73.64
2018-10-11T22:44:13.154Z,71.69
2018-10-11T22:46:42.970Z,71.64
2018-10-11T22:49:12.291Z,71.59
2018-10-11T22:51:41.680Z,72.12
2018-10-11T22:54:11.369Z,72.16
2018-10-11T22:56:40.531Z,75.71
2018-10-11T22:59:09.745Z,75.23
2018-10-11T23:01:38.951Z,76.19
2018-10-11T23:04:08.255Z,76.94
2018-10-11T23:06:37.425Z,78.66
2018-10-11T23:09:08.018Z,78.41
2018-10-11T23:11:37.262Z,77.26
2018-10-11T23:14:06.571Z,78.34
2018-10-11T23:16:36.019Z,77.43
2018-10-11T23:19:05.514Z,77.97
2018-10-11T23:21:34.846Z,78.11
2018-10-11T23:24:04.062Z,78.04
2018-10-11T23:26:33.318Z,79.09
2018-10-11T23:29:02.557Z,79.48
2018-10-11T23:31:31.815Z,79.72
2018-10-11T23:34:01.102Z,80.08
2018-10-11T23:36:30.777Z,78.08
2018-10-11T23:38:59.987Z,78.86
2018-10-11T23:41:29.275Z,78.55
2018-10-11T23:43:58.482Z,79.60
2018-10-11T23:46:27.666Z,79.96
2018-10-11T23:48:56.487Z,80.17
2018-10-11T23:51:25.334Z,80.12
2018-10-11T23:53:54.188Z,80.15
2018-10-11T23:56:23.014Z,80.29
2018-10-11T23:58:51.824Z,81.29
